Airfield :
LOGIN :

Register | Disclaimer

   EN    FR    IT 

 










Legend :    VFR   Marginal VFR   IFR   Intensive IFR   Very Intensive IFR
Visi :
Ceiling :
>= 8 km
>= 3000ft
5 to 8 km
1000 to 3000 ft
1500m to 5 km
500 to 1000 ft
800 to 1500m
200 to 500 ft
< 800m
< 200 ft
Symbols :   Thunderstorms  Fog  Heavy snow  Heavy precipitations  Wind > 20 kt
SIGMETs :     Misc.  Thunderstorms  Icing  Turbulence  Mountain Waves  Volcanic Ashes






- Airport Elevation : 219 ft
- IATA code : DNR


LFRD - Dinard

CURRENT METAR :
  • 171830Z AUTO 09005KT 0300 0250 R35L/0350N FG VV/// 04/04 Q1037 NOSIG

EXPIRED METARs :
  • 171800Z AUTO 10005KT 0250 R35L/0300N FG VV/// 04/04 Q1037 NOSIG
  • 171730Z AUTO 10004KT 1700 0450 R35L/P2000 BCFG VV/// 04/04 Q1038 TEMPO 0500 FG
  • 171700Z AUTO 09004KT 1600 0300 R35L/P2000 BCFG NSC 05/05 Q1038 TEMPO 0500 FG VV///
  • 171630Z AUTO 08006KT 0800 0650 R35L/0900D FG NSC 05/05 Q1038 BECMG 9999 NSW
  • 171600Z AUTO 10006KT 4300 1700 -RA BR NSC 07/05 Q1038 TEMPO BKN014 BECMG 9999 NSW

TAF TAF LFRD
Valid from the 17 at 18:00 until the 18 at 18:00 UTC


171700Z 1718/1818 11003KT 4000 BR NSC
TEMPO 1718/1809 0300 FG VV///
BECMG 1801/1803 2000 BR OVC003
BECMG 1809/1811 4000 BR OVC007
BECMG 1811/1813 9999 NSW
TEMPO 1813/1818 BKN013
ATIS : +33 2 99 16 81 50



MET'MAP, your aeronautical weather chart ! - Copyright ORBIFLY December 2007 - Disclaimer

ORBIFLY MET'MAP TEAM :

Programming & Development : Alexandra Zaïnal
Concept & original design : Baudouin d'Aumeries
Assistance for programming : Marc-Olivier Méhu
Technical & hardware support : Manuel Goepfert

Contact : metmap@orbifly.com




SOURCES & CREDITS :

   NOAA